Country
Station

 

Weather  for  Ornskoldsvik Airport  -  Sweden    Sweden

  
13 °C (55 °F)
    
 
 

Current METAR for Ornskoldsvik Airport is :

ESNO 201950Z AUTO 07003KT 340V110 7000 -DZ BKN086/// 13/12 Q1004 REDZ

 

This is a report for Ornskoldsvik Airport - Sweden.
 
The report was made 32 minutes ago, at 19:50 UTC .
The wind was blowing at a speed of 1.5 meters per second (3.5 miles per hour) from east/northeast (070°), varying between north/northwest (340°) and east/southeast (110°).
 
The temperature was 13 °C (55 °F), with a dew-point at 12 °C (54 °F).
The atmospheric pressure was 1004 hPa (29.65 inHg).
The relative humidity was 93.6%.
 
The overall visibility was 7.0 kilometers (4.3 miles).
 
Currently light drizzle.

 
 
 
 

Country :   A   B   C   D   E   F   G   H   I   J   K   L   M   N   O   P   Q   R   S   T   U   V   W   Y   Z

 

Site Info  |  Disclaimer  |  Credits  |  Privacy
Contact us  |  Add to favorites
© 2013-2019 METARs - All rights reserved